Nantucket, MA

1:52 PM EST on November 28, 2014 (GMT -0500)
Chatham Municipal | Change Station
CLOSE
Current Station
Airport
Location: Chatham,
Elevation: 66 ft
Nearby Weather Stations

Elev 66 ft 41.69 °N, 69.99 °W | Updated 1 hour ago

Overcast
Overcast
33 °F
Feels Like 24 °F
N
12
Wind Variable Wind from NW
Gusts 24 mph

Today
High -- | Low -- °F
--% Chance of Precip.
Yesterday
High -- | Low -- °F
Precip. -- in
6:43 AM 4:13 PM
Waxing Crescent, 43% visible
Pressure 30.02 in
Visibility 10.0 miles
Clouds Mostly Cloudy 2500 ft
Overcast 3000 ft
Windchill 24 °F
Dew Point 28 °F
Humidity 82%
Rainfall 0.22 in
Snow Depth Not available.
UV 1 out of 12
Pollen .10 out of 12
Air Quality Not available.
Flu Activity Not available.
METAR KCQX 281752Z AUTO 32010G21KT 10SM BKN025 OVC030 01/M02 A3001 RMK AO2 SNE02 SLP164 P0000 60016 T00061022 10022 20000 53007

More Conditions Fewer Conditions

Pressure 30.02 in
Visibility 10.0 miles
Clouds Mostly Cloudy 2500 ft
Overcast 3000 ft
Windchill 24 °F
Dew Point 28 °F
Humidity 82%
Rainfall 0.22 in
Snow Depth Not available.
UV 1 out of 12
Pollen .10 out of 12
Air Quality Not available.
Flu Activity Not available.
METAR KCQX 281752Z AUTO 32010G21KT 10SM BKN025 OVC030 01/M02 A3001 RMK AO2 SNE02 SLP164 P0000 60016 T00061022 10022 20000 53007

More Conditions Fewer Conditions

10-Day Weather Forecast

Almanac

Astronomy

Nov. 28, 2014 Rise Set
Actual Time
Civil Twilight
Nautical Twilight
Astronomical Twilight
Moon
Length of Visible Light
Length of Day
Tomorrow will be .
, % of the Moon is Illuminated

Today's Extremes

State Highs State Lows

Community

WunderPhotos

Upload Photos

1,774,257 photos uploaded!

WunderBlogs® & News

Nearby

Air Quality

  Air Quality AQ Index Pollutant
Not available.

Snow Depth

Station Depth Elevation

Earthquake Activity

City Distance Mag. Time & Date
Minimum magnitude displayed is 2.5.

Coastal Water Temperatures

Place Temperature

Nearby Weather Stations